sensor_id;sensor_type;location;lat;lon;timestamp;temperature;humidity
23609;DHT22;11982;50.810;4.442;2022-12-16T00:01:37;-2.80;99.90
23609;DHT22;11982;50.810;4.442;2022-12-16T00:04:03;-2.70;99.90
23609;DHT22;11982;50.810;4.442;2022-12-16T00:06:31;-2.60;99.90
23609;DHT22;11982;50.810;4.442;2022-12-16T00:08:59;-2.50;99.90
23609;DHT22;11982;50.810;4.442;2022-12-16T00:11:25;-2.40;99.90
23609;DHT22;11982;50.810;4.442;2022-12-16T00:13:50;-2.30;99.90
23609;DHT22;11982;50.810;4.442;2022-12-16T00:16:18;-2.10;99.90
23609;DHT22;11982;50.810;4.442;2022-12-16T00:18:45;-2.00;99.90
23609;DHT22;11982;50.810;4.442;2022-12-16T00:21:11;-1.90;99.90
23609;DHT22;11982;50.810;4.442;2022-12-16T00:23:37;-1.80;99.90
23609;DHT22;11982;50.810;4.442;2022-12-16T00:26:06;-2.00;99.90
23609;DHT22;11982;50.810;4.442;2022-12-16T00:28:33;-2.00;99.90
23609;DHT22;11982;50.810;4.442;2022-12-16T00:30:58;-1.90;99.90
23609;DHT22;11982;50.810;4.442;2022-12-16T00:33:26;-1.90;99.90
23609;DHT22;11982;50.810;4.442;2022-12-16T00:35:52;-1.80;99.90
23609;DHT22;11982;50.810;4.442;2022-12-16T00:38:19;-1.70;99.90
23609;DHT22;11982;50.810;4.442;2022-12-16T00:40:45;-1.60;99.90
23609;DHT22;11982;50.810;4.442;2022-12-16T00:43:11;-1.30;99.90
23609;DHT22;11982;50.810;4.442;2022-12-16T00:45:37;-1.30;99.90
23609;DHT22;11982;50.810;4.442;2022-12-16T00:48:04;-1.10;99.90
23609;DHT22;11982;50.810;4.442;2022-12-16T00:50:30;-1.00;99.90
23609;DHT22;11982;50.810;4.442;2022-12-16T00:52:56;-1.10;99.90
23609;DHT22;11982;50.810;4.442;2022-12-16T00:55:21;-0.90;99.90
23609;DHT22;11982;50.810;4.442;2022-12-16T00:57:47;-1.00;99.90
23609;DHT22;11982;50.810;4.442;2022-12-16T01:00:14;-1.00;99.90
23609;DHT22;11982;50.810;4.442;2022-12-16T01:02:41;-0.90;99.90
23609;DHT22;11982;50.810;4.442;2022-12-16T01:05:08;-0.90;99.90
23609;DHT22;11982;50.810;4.442;2022-12-16T01:07:34;-1.10;99.90
23609;DHT22;11982;50.810;4.442;2022-12-16T01:10:00;-1.10;99.90
23609;DHT22;11982;50.810;4.442;2022-12-16T01:12:26;-1.00;99.90
23609;DHT22;11982;50.810;4.442;2022-12-16T01:14:51;-0.90;99.90
23609;DHT22;11982;50.810;4.442;2022-12-16T01:17:17;-0.90;99.90
23609;DHT22;11982;50.810;4.442;2022-12-16T01:19:43;-0.90;99.90
23609;DHT22;11982;50.810;4.442;2022-12-16T01:22:09;-0.90;99.90
23609;DHT22;11982;50.810;4.442;2022-12-16T01:24:35;-0.80;99.90
23609;DHT22;11982;50.810;4.442;2022-12-16T01:27:00;-0.80;99.90
23609;DHT22;11982;50.810;4.442;2022-12-16T01:29:26;-0.80;99.90
23609;DHT22;11982;50.810;4.442;2022-12-16T01:31:52;-0.70;99.90
23609;DHT22;11982;50.810;4.442;2022-12-16T01:34:17;-0.70;99.90
23609;DHT22;11982;50.810;4.442;2022-12-16T01:36:43;-0.70;99.90
23609;DHT22;11982;50.810;4.442;2022-12-16T01:39:09;-0.70;99.90
23609;DHT22;11982;50.810;4.442;2022-12-16T01:41:35;-0.50;99.90
23609;DHT22;11982;50.810;4.442;2022-12-16T01:44:16;-0.40;99.90
23609;DHT22;11982;50.810;4.442;2022-12-16T01:46:54;-0.40;99.90
23609;DHT22;11982;50.810;4.442;2022-12-16T01:49:33;-0.40;99.90
23609;DHT22;11982;50.810;4.442;2022-12-16T01:52:02;-0.40;99.90
23609;DHT22;11982;50.810;4.442;2022-12-16T01:54:33;-0.40;99.90
23609;DHT22;11982;50.810;4.442;2022-12-16T01:57:04;-0.40;99.90
23609;DHT22;11982;50.810;4.442;2022-12-16T01:59:33;-0.50;99.90
23609;DHT22;11982;50.810;4.442;2022-12-16T02:01:59;-0.50;99.90
23609;DHT22;11982;50.810;4.442;2022-12-16T02:04:26;-0.60;99.90
23609;DHT22;11982;50.810;4.442;2022-12-16T02:06:52;-0.60;99.90
23609;DHT22;11982;50.810;4.442;2022-12-16T02:09:18;-0.40;99.90
23609;DHT22;11982;50.810;4.442;2022-12-16T02:12:02;-0.50;99.90
23609;DHT22;11982;50.810;4.442;2022-12-16T02:20:21;-0.50;99.90
23609;DHT22;11982;50.810;4.442;2022-12-16T02:34:16;0.20;99.90
23609;DHT22;11982;50.810;4.442;2022-12-16T02:39:41;0.10;99.90
23609;DHT22;11982;50.810;4.442;2022-12-16T02:42:20;0.20;99.90
23609;DHT22;11982;50.810;4.442;2022-12-16T02:45:00;0.30;99.90
23609;DHT22;11982;50.810;4.442;2022-12-16T02:47:27;0.20;99.90
23609;DHT22;11982;50.810;4.442;2022-12-16T02:49:54;0.20;99.90
23609;DHT22;11982;50.810;4.442;2022-12-16T02:52:26;0.20;99.90
23609;DHT22;11982;50.810;4.442;2022-12-16T02:54:56;0.10;99.90
23609;DHT22;11982;50.810;4.442;2022-12-16T02:57:37;0.30;99.90
23609;DHT22;11982;50.810;4.442;2022-12-16T03:00:17;0.40;99.90
23609;DHT22;11982;50.810;4.442;2022-12-16T03:05:46;0.50;99.90
23609;DHT22;11982;50.810;4.442;2022-12-16T03:08:20;0.40;99.90
23609;DHT22;11982;50.810;4.442;2022-12-16T03:10:54;0.60;99.90
23609;DHT22;11982;50.810;4.442;2022-12-16T03:13:21;0.70;99.90
23609;DHT22;11982;50.810;4.442;2022-12-16T03:15:49;0.80;99.90
23609;DHT22;11982;50.810;4.442;2022-12-16T03:18:18;0.80;99.90
23609;DHT22;11982;50.810;4.442;2022-12-16T03:21:00;1.10;99.90
23609;DHT22;11982;50.810;4.442;2022-12-16T03:23:34;1.00;99.90
23609;DHT22;11982;50.810;4.442;2022-12-16T03:26:06;0.90;99.90
23609;DHT22;11982;50.810;4.442;2022-12-16T03:31:57;1.00;99.90
23609;DHT22;11982;50.810;4.442;2022-12-16T03:34:51;1.20;99.90
23609;DHT22;11982;50.810;4.442;2022-12-16T03:37:19;0.80;99.90
23609;DHT22;11982;50.810;4.442;2022-12-16T03:39:51;0.80;99.90
23609;DHT22;11982;50.810;4.442;2022-12-16T03:42:18;0.90;99.90
23609;DHT22;11982;50.810;4.442;2022-12-16T03:44:44;0.90;99.90
23609;DHT22;11982;50.810;4.442;2022-12-16T03:47:13;1.10;99.90
23609;DHT22;11982;50.810;4.442;2022-12-16T03:49:39;1.10;99.90
23609;DHT22;11982;50.810;4.442;2022-12-16T03:52:06;1.30;99.90
23609;DHT22;11982;50.810;4.442;2022-12-16T03:54:33;1.30;99.90
23609;DHT22;11982;50.810;4.442;2022-12-16T03:56:59;1.40;99.90
23609;DHT22;11982;50.810;4.442;2022-12-16T03:59:24;1.30;99.90
23609;DHT22;11982;50.810;4.442;2022-12-16T04:01:50;1.20;99.90
23609;DHT22;11982;50.810;4.442;2022-12-16T04:04:17;1.20;99.90
23609;DHT22;11982;50.810;4.442;2022-12-16T04:06:43;1.10;99.90
23609;DHT22;11982;50.810;4.442;2022-12-16T04:09:09;0.90;99.90
23609;DHT22;11982;50.810;4.442;2022-12-16T04:11:34;0.80;99.90
23609;DHT22;11982;50.810;4.442;2022-12-16T04:14:19;0.80;99.90
23609;DHT22;11982;50.810;4.442;2022-12-16T04:17:04;0.80;99.90
23609;DHT22;11982;50.810;4.442;2022-12-16T04:19:49;0.70;99.90
23609;DHT22;11982;50.810;4.442;2022-12-16T04:22:43;0.70;99.90
23609;DHT22;11982;50.810;4.442;2022-12-16T04:25:33;0.80;99.90
23609;DHT22;11982;50.810;4.442;2022-12-16T04:28:00;0.80;99.90
23609;DHT22;11982;50.810;4.442;2022-12-16T04:30:27;0.70;99.90
23609;DHT22;11982;50.810;4.442;2022-12-16T04:33:08;0.80;99.90
23609;DHT22;11982;50.810;4.442;2022-12-16T04:35:54;0.80;99.90
23609;DHT22;11982;50.810;4.442;2022-12-16T04:38:38;0.70;99.90
23609;DHT22;11982;50.810;4.442;2022-12-16T04:41:23;0.60;99.90
23609;DHT22;11982;50.810;4.442;2022-12-16T04:44:07;0.70;99.90
23609;DHT22;11982;50.810;4.442;2022-12-16T04:46:51;0.70;99.90
23609;DHT22;11982;50.810;4.442;2022-12-16T04:49:35;0.80;99.90
23609;DHT22;11982;50.810;4.442;2022-12-16T04:52:20;0.90;99.90
23609;DHT22;11982;50.810;4.442;2022-12-16T04:55:04;0.90;99.90
23609;DHT22;11982;50.810;4.442;2022-12-16T04:57:54;0.80;99.90
23609;DHT22;11982;50.810;4.442;2022-12-16T05:00:40;0.90;99.90
23609;DHT22;11982;50.810;4.442;2022-12-16T05:03:24;0.80;99.90
23609;DHT22;11982;50.810;4.442;2022-12-16T05:06:09;0.90;99.90
23609;DHT22;11982;50.810;4.442;2022-12-16T05:08:53;1.20;99.90
23609;DHT22;11982;50.810;4.442;2022-12-16T05:11:37;1.20;99.90
23609;DHT22;11982;50.810;4.442;2022-12-16T05:14:21;1.10;99.90
23609;DHT22;11982;50.810;4.442;2022-12-16T05:17:06;1.10;99.90
23609;DHT22;11982;50.810;4.442;2022-12-16T05:19:50;1.10;99.90
23609;DHT22;11982;50.810;4.442;2022-12-16T05:22:35;1.00;99.90
23609;DHT22;11982;50.810;4.442;2022-12-16T05:25:19;1.10;99.90
23609;DHT22;11982;50.810;4.442;2022-12-16T05:28:03;1.10;99.90
23609;DHT22;11982;50.810;4.442;2022-12-16T05:30:47;1.10;99.90
23609;DHT22;11982;50.810;4.442;2022-12-16T05:33:45;1.00;99.90
23609;DHT22;11982;50.810;4.442;2022-12-16T05:36:29;1.10;99.90
23609;DHT22;11982;50.810;4.442;2022-12-16T05:39:13;1.10;99.90
23609;DHT22;11982;50.810;4.442;2022-12-16T05:41:58;1.10;99.90
23609;DHT22;11982;50.810;4.442;2022-12-16T05:44:42;1.20;99.90
23609;DHT22;11982;50.810;4.442;2022-12-16T05:47:26;1.20;99.90
23609;DHT22;11982;50.810;4.442;2022-12-16T05:50:11;1.20;99.90
23609;DHT22;11982;50.810;4.442;2022-12-16T05:52:56;1.20;99.90
23609;DHT22;11982;50.810;4.442;2022-12-16T05:55:41;1.30;99.90
23609;DHT22;11982;50.810;4.442;2022-12-16T05:58:26;1.30;99.90
23609;DHT22;11982;50.810;4.442;2022-12-16T06:01:11;1.30;99.90
23609;DHT22;11982;50.810;4.442;2022-12-16T06:03:55;1.30;99.90
23609;DHT22;11982;50.810;4.442;2022-12-16T06:06:40;1.30;99.90
23609;DHT22;11982;50.810;4.442;2022-12-16T06:09:24;1.30;99.90
23609;DHT22;11982;50.810;4.442;2022-12-16T06:12:08;1.30;99.90
23609;DHT22;11982;50.810;4.442;2022-12-16T06:14:52;1.30;99.90
23609;DHT22;11982;50.810;4.442;2022-12-16T06:17:36;1.30;99.90
23609;DHT22;11982;50.810;4.442;2022-12-16T06:20:24;1.40;99.90
23609;DHT22;11982;50.810;4.442;2022-12-16T06:23:08;1.50;99.90
23609;DHT22;11982;50.810;4.442;2022-12-16T06:25:52;1.60;99.90
23609;DHT22;11982;50.810;4.442;2022-12-16T06:28:36;1.60;99.90
23609;DHT22;11982;50.810;4.442;2022-12-16T06:31:20;1.70;99.90
23609;DHT22;11982;50.810;4.442;2022-12-16T06:34:04;1.70;99.90
23609;DHT22;11982;50.810;4.442;2022-12-16T06:36:48;1.60;99.90
23609;DHT22;11982;50.810;4.442;2022-12-16T06:39:32;1.70;99.90
23609;DHT22;11982;50.810;4.442;2022-12-16T06:42:16;1.70;99.90
23609;DHT22;11982;50.810;4.442;2022-12-16T06:45:01;1.60;99.90
23609;DHT22;11982;50.810;4.442;2022-12-16T06:47:45;1.50;99.90
23609;DHT22;11982;50.810;4.442;2022-12-16T06:50:32;1.60;99.90
23609;DHT22;11982;50.810;4.442;2022-12-16T06:53:16;1.60;99.90
23609;DHT22;11982;50.810;4.442;2022-12-16T06:56:00;1.60;99.90
23609;DHT22;11982;50.810;4.442;2022-12-16T06:58:44;1.60;99.90
23609;DHT22;11982;50.810;4.442;2022-12-16T07:01:28;1.60;99.90
23609;DHT22;11982;50.810;4.442;2022-12-16T07:04:12;1.50;99.90
23609;DHT22;11982;50.810;4.442;2022-12-16T07:06:56;1.50;99.90
23609;DHT22;11982;50.810;4.442;2022-12-16T07:09:40;1.60;99.90
23609;DHT22;11982;50.810;4.442;2022-12-16T07:12:25;1.50;99.90
23609;DHT22;11982;50.810;4.442;2022-12-16T07:15:09;1.60;99.90
23609;DHT22;11982;50.810;4.442;2022-12-16T07:17:54;1.60;99.90
23609;DHT22;11982;50.810;4.442;2022-12-16T07:20:38;1.60;99.90
23609;DHT22;11982;50.810;4.442;2022-12-16T07:23:22;1.60;99.90
23609;DHT22;11982;50.810;4.442;2022-12-16T07:26:06;1.60;99.90
23609;DHT22;11982;50.810;4.442;2022-12-16T07:28:50;1.50;99.90
23609;DHT22;11982;50.810;4.442;2022-12-16T07:31:34;1.50;99.90
23609;DHT22;11982;50.810;4.442;2022-12-16T07:34:18;1.50;99.90
23609;DHT22;11982;50.810;4.442;2022-12-16T07:37:02;1.50;99.90
23609;DHT22;11982;50.810;4.442;2022-12-16T07:39:46;1.50;99.90
23609;DHT22;11982;50.810;4.442;2022-12-16T07:42:30;1.50;99.90
23609;DHT22;11982;50.810;4.442;2022-12-16T07:45:14;1.60;99.90
23609;DHT22;11982;50.810;4.442;2022-12-16T07:47:58;1.70;99.90
23609;DHT22;11982;50.810;4.442;2022-12-16T07:50:43;1.60;99.90
23609;DHT22;11982;50.810;4.442;2022-12-16T07:53:27;1.40;99.90
23609;DHT22;11982;50.810;4.442;2022-12-16T07:56:11;1.30;99.90
23609;DHT22;11982;50.810;4.442;2022-12-16T07:58:55;1.20;99.90
23609;DHT22;11982;50.810;4.442;2022-12-16T08:01:40;1.20;99.90
23609;DHT22;11982;50.810;4.442;2022-12-16T08:04:24;1.20;99.90
23609;DHT22;11982;50.810;4.442;2022-12-16T08:07:08;1.10;99.90
23609;DHT22;11982;50.810;4.442;2022-12-16T08:09:52;1.30;99.90
23609;DHT22;11982;50.810;4.442;2022-12-16T08:12:36;1.30;99.90
23609;DHT22;11982;50.810;4.442;2022-12-16T08:15:20;1.30;99.90
23609;DHT22;11982;50.810;4.442;2022-12-16T08:18:04;1.30;99.90
23609;DHT22;11982;50.810;4.442;2022-12-16T08:20:48;1.40;99.90
23609;DHT22;11982;50.810;4.442;2022-12-16T08:23:32;1.30;99.90
23609;DHT22;11982;50.810;4.442;2022-12-16T08:26:16;1.30;99.90
23609;DHT22;11982;50.810;4.442;2022-12-16T08:29:01;1.30;99.90
23609;DHT22;11982;50.810;4.442;2022-12-16T08:31:45;1.50;99.90
23609;DHT22;11982;50.810;4.442;2022-12-16T08:34:29;1.50;99.90
23609;DHT22;11982;50.810;4.442;2022-12-16T08:37:13;1.60;99.90
23609;DHT22;11982;50.810;4.442;2022-12-16T08:39:57;1.70;99.90
23609;DHT22;11982;50.810;4.442;2022-12-16T08:42:41;1.60;99.90
23609;DHT22;11982;50.810;4.442;2022-12-16T08:45:26;1.50;99.90
23609;DHT22;11982;50.810;4.442;2022-12-16T08:48:10;1.50;99.90
23609;DHT22;11982;50.810;4.442;2022-12-16T08:50:54;1.50;99.90
23609;DHT22;11982;50.810;4.442;2022-12-16T08:53:38;1.60;99.90
23609;DHT22;11982;50.810;4.442;2022-12-16T08:56:22;1.70;99.90
23609;DHT22;11982;50.810;4.442;2022-12-16T08:59:07;1.70;99.90
23609;DHT22;11982;50.810;4.442;2022-12-16T09:02:04;2.00;99.90
23609;DHT22;11982;50.810;4.442;2022-12-16T09:04:49;2.10;99.90
23609;DHT22;11982;50.810;4.442;2022-12-16T09:07:33;2.00;99.90
23609;DHT22;11982;50.810;4.442;2022-12-16T09:10:31;1.70;99.90
23609;DHT22;11982;50.810;4.442;2022-12-16T09:13:16;1.70;99.90
23609;DHT22;11982;50.810;4.442;2022-12-16T09:16:00;1.80;99.90
23609;DHT22;11982;50.810;4.442;2022-12-16T09:18:44;1.70;99.90
23609;DHT22;11982;50.810;4.442;2022-12-16T09:21:28;1.70;99.90
23609;DHT22;11982;50.810;4.442;2022-12-16T09:24:13;1.80;99.90
23609;DHT22;11982;50.810;4.442;2022-12-16T09:26:57;1.80;99.90
23609;DHT22;11982;50.810;4.442;2022-12-16T09:29:41;1.80;99.90
23609;DHT22;11982;50.810;4.442;2022-12-16T09:32:25;2.00;99.90
23609;DHT22;11982;50.810;4.442;2022-12-16T09:35:09;2.10;99.90
23609;DHT22;11982;50.810;4.442;2022-12-16T09:37:53;1.90;99.90
23609;DHT22;11982;50.810;4.442;2022-12-16T09:40:39;2.00;99.90
23609;DHT22;11982;50.810;4.442;2022-12-16T09:49:51;2.50;99.90
23609;DHT22;11982;50.810;4.442;2022-12-16T09:52:49;2.30;99.90
23609;DHT22;11982;50.810;4.442;2022-12-16T09:55:41;2.20;99.90
23609;DHT22;11982;50.810;4.442;2022-12-16T09:58:29;2.20;99.90
23609;DHT22;11982;50.810;4.442;2022-12-16T10:01:15;2.30;99.90
23609;DHT22;11982;50.810;4.442;2022-12-16T10:04:07;2.30;99.90
23609;DHT22;11982;50.810;4.442;2022-12-16T10:06:52;2.30;99.90
23609;DHT22;11982;50.810;4.442;2022-12-16T10:09:58;2.30;99.90
23609;DHT22;11982;50.810;4.442;2022-12-16T10:16:07;2.00;99.90
23609;DHT22;11982;50.810;4.442;2022-12-16T10:28:26;2.30;99.90
23609;DHT22;11982;50.810;4.442;2022-12-16T10:31:15;2.40;99.90
23609;DHT22;11982;50.810;4.442;2022-12-16T10:34:00;2.40;99.90
23609;DHT22;11982;50.810;4.442;2022-12-16T10:36:45;2.40;99.90
23609;DHT22;11982;50.810;4.442;2022-12-16T10:39:42;2.70;99.90
23609;DHT22;11982;50.810;4.442;2022-12-16T10:42:30;2.70;99.90
23609;DHT22;11982;50.810;4.442;2022-12-16T10:45:24;2.50;99.90
23609;DHT22;11982;50.810;4.442;2022-12-16T10:48:10;2.30;99.90
23609;DHT22;11982;50.810;4.442;2022-12-16T10:50:56;2.20;99.90
23609;DHT22;11982;50.810;4.442;2022-12-16T10:53:42;2.10;99.90
23609;DHT22;11982;50.810;4.442;2022-12-16T10:56:48;2.00;99.90
23609;DHT22;11982;50.810;4.442;2022-12-16T10:59:36;1.90;99.90
23609;DHT22;11982;50.810;4.442;2022-12-16T11:02:25;1.80;99.90
23609;DHT22;11982;50.810;4.442;2022-12-16T11:05:43;1.60;99.90
23609;DHT22;11982;50.810;4.442;2022-12-16T11:08:31;1.80;99.90
23609;DHT22;11982;50.810;4.442;2022-12-16T11:11:27;1.80;99.90
23609;DHT22;11982;50.810;4.442;2022-12-16T11:14:22;1.60;99.90
23609;DHT22;11982;50.810;4.442;2022-12-16T11:17:21;1.50;99.90
23609;DHT22;11982;50.810;4.442;2022-12-16T11:20:15;1.60;99.90
23609;DHT22;11982;50.810;4.442;2022-12-16T11:23:21;1.70;99.90
23609;DHT22;11982;50.810;4.442;2022-12-16T11:26:14;1.70;99.90
23609;DHT22;11982;50.810;4.442;2022-12-16T11:31:53;1.80;99.90
23609;DHT22;11982;50.810;4.442;2022-12-16T11:34:37;1.80;99.90
23609;DHT22;11982;50.810;4.442;2022-12-16T11:37:23;1.80;99.90
23609;DHT22;11982;50.810;4.442;2022-12-16T11:40:14;1.90;99.90
23609;DHT22;11982;50.810;4.442;2022-12-16T11:43:02;2.00;99.90
23609;DHT22;11982;50.810;4.442;2022-12-16T11:45:50;2.10;99.90
23609;DHT22;11982;50.810;4.442;2022-12-16T11:48:43;2.00;99.90
23609;DHT22;11982;50.810;4.442;2022-12-16T11:51:32;2.00;99.90
23609;DHT22;11982;50.810;4.442;2022-12-16T11:54:25;2.00;99.90
23609;DHT22;11982;50.810;4.442;2022-12-16T11:57:21;2.00;99.90
23609;DHT22;11982;50.810;4.442;2022-12-16T12:00:09;2.00;99.90
23609;DHT22;11982;50.810;4.442;2022-12-16T12:03:15;2.10;99.90
23609;DHT22;11982;50.810;4.442;2022-12-16T12:06:21;2.20;99.90
23609;DHT22;11982;50.810;4.442;2022-12-16T12:09:24;2.30;99.90
23609;DHT22;11982;50.810;4.442;2022-12-16T12:15:26;2.40;99.90
23609;DHT22;11982;50.810;4.442;2022-12-16T12:21:40;2.20;99.90
23609;DHT22;11982;50.810;4.442;2022-12-16T12:30:09;2.10;99.90
23609;DHT22;11982;50.810;4.442;2022-12-16T12:39:11;2.20;99.90
23609;DHT22;11982;50.810;4.442;2022-12-16T12:42:27;2.10;99.90
23609;DHT22;11982;50.810;4.442;2022-12-16T12:48:18;2.20;99.90
23609;DHT22;11982;50.810;4.442;2022-12-16T12:57:58;2.50;99.90
23609;DHT22;11982;50.810;4.442;2022-12-16T13:00:46;2.60;99.90
23609;DHT22;11982;50.810;4.442;2022-12-16T13:06:23;2.70;99.90
23609;DHT22;11982;50.810;4.442;2022-12-16T13:09:31;2.80;99.90
23609;DHT22;11982;50.810;4.442;2022-12-16T13:12:24;2.80;99.90
23609;DHT22;11982;50.810;4.442;2022-12-16T13:18:28;2.70;99.90
23609;DHT22;11982;50.810;4.442;2022-12-16T13:27:13;2.50;99.90
23609;DHT22;11982;50.810;4.442;2022-12-16T13:30:20;2.50;99.90
23609;DHT22;11982;50.810;4.442;2022-12-16T13:36:10;2.40;99.90
23609;DHT22;11982;50.810;4.442;2022-12-16T13:39:07;2.40;99.90
23609;DHT22;11982;50.810;4.442;2022-12-16T13:42:00;2.40;99.90
23609;DHT22;11982;50.810;4.442;2022-12-16T13:53:21;2.50;99.90
23609;DHT22;11982;50.810;4.442;2022-12-16T13:56:09;2.50;99.90
23609;DHT22;11982;50.810;4.442;2022-12-16T13:59:07;2.50;99.90
23609;DHT22;11982;50.810;4.442;2022-12-16T14:02:00;2.50;99.90
23609;DHT22;11982;50.810;4.442;2022-12-16T14:04:48;2.50;99.90
23609;DHT22;11982;50.810;4.442;2022-12-16T14:07:34;2.70;99.90
23609;DHT22;11982;50.810;4.442;2022-12-16T14:10:35;2.60;99.90
23609;DHT22;11982;50.810;4.442;2022-12-16T14:13:39;2.60;99.90
23609;DHT22;11982;50.810;4.442;2022-12-16T14:22:50;2.70;99.90
23609;DHT22;11982;50.810;4.442;2022-12-16T14:25:44;2.60;99.90
23609;DHT22;11982;50.810;4.442;2022-12-16T14:28:32;2.60;99.90
23609;DHT22;11982;50.810;4.442;2022-12-16T14:34:23;2.60;99.90
23609;DHT22;11982;50.810;4.442;2022-12-16T14:37:17;2.70;99.90
23609;DHT22;11982;50.810;4.442;2022-12-16T14:40:02;2.70;99.90
23609;DHT22;11982;50.810;4.442;2022-12-16T14:42:51;2.60;99.90
23609;DHT22;11982;50.810;4.442;2022-12-16T14:45:37;2.60;99.90
23609;DHT22;11982;50.810;4.442;2022-12-16T14:48:33;2.70;99.90
23609;DHT22;11982;50.810;4.442;2022-12-16T14:51:32;2.80;99.90
23609;DHT22;11982;50.810;4.442;2022-12-16T14:54:38;2.80;99.90
23609;DHT22;11982;50.810;4.442;2022-12-16T14:57:30;2.80;99.90
23609;DHT22;11982;50.810;4.442;2022-12-16T15:00:19;2.90;99.90
23609;DHT22;11982;50.810;4.442;2022-12-16T15:06:09;3.00;99.90
23609;DHT22;11982;50.810;4.442;2022-12-16T15:08:57;2.90;99.90
23609;DHT22;11982;50.810;4.442;2022-12-16T15:11:45;2.50;99.90
23609;DHT22;11982;50.810;4.442;2022-12-16T15:14:32;2.30;99.90
23609;DHT22;11982;50.810;4.442;2022-12-16T15:20:16;2.30;99.90
23609;DHT22;11982;50.810;4.442;2022-12-16T15:23:01;1.90;99.90
23609;DHT22;11982;50.810;4.442;2022-12-16T15:25:51;1.80;99.90
23609;DHT22;11982;50.810;4.442;2022-12-16T15:28:41;1.60;99.90
23609;DHT22;11982;50.810;4.442;2022-12-16T15:31:34;1.40;99.90
23609;DHT22;11982;50.810;4.442;2022-12-16T15:37:03;1.10;99.90
23609;DHT22;11982;50.810;4.442;2022-12-16T15:39:47;1.10;99.90
23609;DHT22;11982;50.810;4.442;2022-12-16T15:42:34;0.90;99.90
23609;DHT22;11982;50.810;4.442;2022-12-16T15:45:31;0.80;99.90
23609;DHT22;11982;50.810;4.442;2022-12-16T15:48:25;0.70;99.90
23609;DHT22;11982;50.810;4.442;2022-12-16T15:51:30;0.60;99.90
23609;DHT22;11982;50.810;4.442;2022-12-16T15:54:18;0.50;99.90
23609;DHT22;11982;50.810;4.442;2022-12-16T15:57:21;0.30;99.90
23609;DHT22;11982;50.810;4.442;2022-12-16T16:06:02;0.10;99.90
23609;DHT22;11982;50.810;4.442;2022-12-16T16:08:50;0.00;99.90
23609;DHT22;11982;50.810;4.442;2022-12-16T16:11:36;0.00;99.90
23609;DHT22;11982;50.810;4.442;2022-12-16T16:14:20;0.00;99.90
23609;DHT22;11982;50.810;4.442;2022-12-16T16:17:21;0.10;99.90
23609;DHT22;11982;50.810;4.442;2022-12-16T16:20:08;0.10;99.90
23609;DHT22;11982;50.810;4.442;2022-12-16T16:22:57;0.10;99.90
23609;DHT22;11982;50.810;4.442;2022-12-16T16:25:41;0.00;99.90
23609;DHT22;11982;50.810;4.442;2022-12-16T16:28:25;-0.20;99.90
23609;DHT22;11982;50.810;4.442;2022-12-16T16:31:09;-0.30;99.90
23609;DHT22;11982;50.810;4.442;2022-12-16T16:33:53;-0.40;99.90
23609;DHT22;11982;50.810;4.442;2022-12-16T16:36:39;-0.60;99.90
23609;DHT22;11982;50.810;4.442;2022-12-16T16:39:23;-0.40;99.90
23609;DHT22;11982;50.810;4.442;2022-12-16T16:42:08;-0.30;99.90
23609;DHT22;11982;50.810;4.442;2022-12-16T16:44:53;-0.50;99.90
23609;DHT22;11982;50.810;4.442;2022-12-16T16:47:37;-0.70;99.90
23609;DHT22;11982;50.810;4.442;2022-12-16T16:50:21;-0.70;99.90
23609;DHT22;11982;50.810;4.442;2022-12-16T16:53:13;-0.80;99.90
23609;DHT22;11982;50.810;4.442;2022-12-16T16:55:57;-0.70;99.90
23609;DHT22;11982;50.810;4.442;2022-12-16T16:58:41;-0.70;99.90
23609;DHT22;11982;50.810;4.442;2022-12-16T17:01:26;-0.60;99.90
23609;DHT22;11982;50.810;4.442;2022-12-16T17:04:10;-0.60;99.90
23609;DHT22;11982;50.810;4.442;2022-12-16T17:06:54;-0.60;99.90
23609;DHT22;11982;50.810;4.442;2022-12-16T17:09:38;-0.60;99.90
23609;DHT22;11982;50.810;4.442;2022-12-16T17:12:27;-0.80;99.90
23609;DHT22;11982;50.810;4.442;2022-12-16T17:15:18;-0.70;99.90
23609;DHT22;11982;50.810;4.442;2022-12-16T17:18:04;-0.70;99.90
23609;DHT22;11982;50.810;4.442;2022-12-16T17:20:48;-0.70;99.90
23609;DHT22;11982;50.810;4.442;2022-12-16T17:23:32;-0.90;99.90
23609;DHT22;11982;50.810;4.442;2022-12-16T17:26:17;-1.00;99.90
23609;DHT22;11982;50.810;4.442;2022-12-16T17:29:01;-1.10;99.90
23609;DHT22;11982;50.810;4.442;2022-12-16T17:31:45;-1.20;99.90
23609;DHT22;11982;50.810;4.442;2022-12-16T17:34:30;-1.20;99.90
23609;DHT22;11982;50.810;4.442;2022-12-16T17:37:14;-1.20;99.90
23609;DHT22;11982;50.810;4.442;2022-12-16T17:40:00;-1.20;99.90
23609;DHT22;11982;50.810;4.442;2022-12-16T17:42:44;-1.30;99.90
23609;DHT22;11982;50.810;4.442;2022-12-16T17:45:28;-1.40;99.90
23609;DHT22;11982;50.810;4.442;2022-12-16T17:48:12;-1.40;99.90
23609;DHT22;11982;50.810;4.442;2022-12-16T17:50:57;-1.40;99.90
23609;DHT22;11982;50.810;4.442;2022-12-16T17:53:41;-1.30;99.90
23609;DHT22;11982;50.810;4.442;2022-12-16T17:56:25;-1.30;99.90
23609;DHT22;11982;50.810;4.442;2022-12-16T17:59:09;-1.30;99.90
23609;DHT22;11982;50.810;4.442;2022-12-16T18:01:53;-1.30;99.90
23609;DHT22;11982;50.810;4.442;2022-12-16T18:04:38;-1.30;99.90
23609;DHT22;11982;50.810;4.442;2022-12-16T18:07:35;-1.50;99.90
23609;DHT22;11982;50.810;4.442;2022-12-16T18:10:20;-1.60;99.90
23609;DHT22;11982;50.810;4.442;2022-12-16T18:13:04;-1.50;99.90
23609;DHT22;11982;50.810;4.442;2022-12-16T18:15:51;-1.50;99.90
23609;DHT22;11982;50.810;4.442;2022-12-16T18:18:36;-1.60;99.90
23609;DHT22;11982;50.810;4.442;2022-12-16T18:21:20;-1.60;99.90
23609;DHT22;11982;50.810;4.442;2022-12-16T18:24:06;-1.70;99.90
23609;DHT22;11982;50.810;4.442;2022-12-16T18:26:50;-1.80;99.90
23609;DHT22;11982;50.810;4.442;2022-12-16T18:29:34;-1.80;99.90
23609;DHT22;11982;50.810;4.442;2022-12-16T18:32:18;-1.80;99.90
23609;DHT22;11982;50.810;4.442;2022-12-16T18:35:19;-1.90;99.90
23609;DHT22;11982;50.810;4.442;2022-12-16T18:38:03;-2.00;99.90
23609;DHT22;11982;50.810;4.442;2022-12-16T18:40:47;-2.00;99.90
23609;DHT22;11982;50.810;4.442;2022-12-16T18:43:31;-2.00;99.90
23609;DHT22;11982;50.810;4.442;2022-12-16T18:46:15;-2.00;99.90
23609;DHT22;11982;50.810;4.442;2022-12-16T18:48:59;-2.00;99.90
23609;DHT22;11982;50.810;4.442;2022-12-16T18:51:44;-2.10;99.90
23609;DHT22;11982;50.810;4.442;2022-12-16T18:54:28;-2.10;99.90
23609;DHT22;11982;50.810;4.442;2022-12-16T18:57:12;-2.00;99.90
23609;DHT22;11982;50.810;4.442;2022-12-16T18:59:56;-1.90;99.90
23609;DHT22;11982;50.810;4.442;2022-12-16T19:02:41;-2.10;99.90
23609;DHT22;11982;50.810;4.442;2022-12-16T19:05:25;-2.10;99.90
23609;DHT22;11982;50.810;4.442;2022-12-16T19:08:09;-2.20;99.90
23609;DHT22;11982;50.810;4.442;2022-12-16T19:10:59;-2.20;99.90
23609;DHT22;11982;50.810;4.442;2022-12-16T19:13:43;-2.20;99.90
23609;DHT22;11982;50.810;4.442;2022-12-16T19:16:27;-2.20;99.90
23609;DHT22;11982;50.810;4.442;2022-12-16T19:19:11;-2.30;99.90
23609;DHT22;11982;50.810;4.442;2022-12-16T19:21:55;-2.30;99.90
23609;DHT22;11982;50.810;4.442;2022-12-16T19:24:39;-2.30;99.90
23609;DHT22;11982;50.810;4.442;2022-12-16T19:27:23;-2.30;99.90